createdAt,value
2023-01-10T00:00:37.404Z,49.60
2023-01-10T00:03:09.446Z,50.50
2023-01-10T00:05:38.165Z,50.10
2023-01-10T00:08:06.848Z,49.80
2023-01-10T00:10:34.355Z,49.40
2023-01-10T00:13:24.398Z,49.40
2023-01-10T00:15:52.963Z,50.40
2023-01-10T00:18:20.337Z,49.30
2023-01-10T00:20:49.444Z,49.50
2023-01-10T00:23:20.027Z,49.90
2023-01-10T00:25:46.889Z,49.30
2023-01-10T00:28:20.327Z,49.20
2023-01-10T00:30:55.679Z,49.40
2023-01-10T00:33:23.524Z,49.90
2023-01-10T00:35:50.222Z,49.10
2023-01-10T00:38:16.969Z,49.80
2023-01-10T00:40:44.316Z,49.70
2023-01-10T00:43:29.716Z,49.40
2023-01-10T00:45:57.959Z,49.30
2023-01-10T00:48:24.975Z,49.40
2023-01-10T00:50:52.005Z,49.40
2023-01-10T00:53:18.681Z,49.30
2023-01-10T00:55:45.621Z,49.40
2023-01-10T00:58:14.507Z,49.70
2023-01-10T01:00:42.482Z,50.00
2023-01-10T01:03:09.999Z,49.90
2023-01-10T01:05:44.298Z,49.50
2023-01-10T01:08:12.278Z,50.50
2023-01-10T01:10:38.980Z,50.40
2023-01-10T01:13:09.469Z,50.40
2023-01-10T01:15:36.809Z,49.40
2023-01-10T01:18:04.875Z,50.20
2023-01-10T01:20:31.971Z,50.10
2023-01-10T01:22:58.890Z,49.60
2023-01-10T01:25:26.545Z,50.40
2023-01-10T01:27:53.318Z,50.00
2023-01-10T01:30:20.034Z,50.10
2023-01-10T01:32:46.775Z,49.60
2023-01-10T01:35:15.880Z,50.60
2023-01-10T01:37:43.587Z,49.60
2023-01-10T01:40:14.708Z,49.50
2023-01-10T01:42:42.588Z,49.60
2023-01-10T01:45:09.306Z,49.30
2023-01-10T01:47:43.381Z,50.50
2023-01-10T01:50:37.707Z,49.70
2023-01-10T01:53:20.797Z,49.70
2023-01-10T01:55:48.172Z,50.10
2023-01-10T01:58:19.788Z,49.70
2023-01-10T02:00:46.800Z,50.30
2023-01-10T02:03:15.023Z,49.80
2023-01-10T02:05:44.635Z,50.80
2023-01-10T02:08:12.771Z,50.30
2023-01-10T02:10:58.144Z,49.80
2023-01-10T02:13:26.593Z,49.80
2023-01-10T02:15:53.383Z,50.30
2023-01-10T02:18:21.144Z,49.80
2023-01-10T02:20:58.707Z,49.80
2023-01-10T02:23:35.603Z,49.80
2023-01-10T02:26:05.214Z,50.00
2023-01-10T02:29:11.795Z,49.80
2023-01-10T02:32:09.519Z,49.80
2023-01-10T02:34:50.078Z,49.80
2023-01-10T02:37:25.130Z,49.80
2023-01-10T02:40:26.811Z,49.80
2023-01-10T02:43:11.578Z,49.80
2023-01-10T02:45:46.185Z,49.80
2023-01-10T02:48:12.940Z,49.90
2023-01-10T02:50:47.158Z,49.80
2023-01-10T02:53:18.602Z,50.40
2023-01-10T02:56:03.845Z,49.90
2023-01-10T02:58:49.492Z,49.80
2023-01-10T03:01:49.870Z,49.80
2023-01-10T03:04:31.808Z,49.80
2023-01-10T03:07:18.393Z,49.80
2023-01-10T03:10:09.272Z,49.80
2023-01-10T03:12:50.361Z,49.80
2023-01-10T03:15:19.725Z,49.70
2023-01-10T03:17:50.310Z,50.10
2023-01-10T03:20:19.118Z,49.70
2023-01-10T03:22:47.487Z,49.70
2023-01-10T03:25:17.284Z,50.10
2023-01-10T03:28:02.130Z,49.70
2023-01-10T03:30:52.345Z,49.70
2023-01-10T03:33:24.712Z,49.70
2023-01-10T03:36:07.308Z,49.70
2023-01-10T03:38:53.953Z,49.70
2023-01-10T03:41:34.703Z,49.80
2023-01-10T03:44:32.084Z,49.50
2023-01-10T03:47:11.644Z,49.60
2023-01-10T03:49:41.294Z,49.60
2023-01-10T03:52:12.124Z,49.50
2023-01-10T03:54:39.018Z,50.30
2023-01-10T03:57:06.357Z,49.70
2023-01-10T03:59:33.475Z,49.70
2023-01-10T04:02:00.340Z,49.60
2023-01-10T04:04:27.497Z,49.60
2023-01-10T04:06:54.256Z,49.50
2023-01-10T04:09:21.063Z,50.10
2023-01-10T04:11:47.737Z,49.60
2023-01-10T04:14:14.959Z,50.20
2023-01-10T04:16:41.703Z,50.00
2023-01-10T04:19:08.387Z,50.20
2023-01-10T04:21:35.095Z,49.20
2023-01-10T04:24:01.793Z,50.00
2023-01-10T04:26:28.739Z,50.50
2023-01-10T04:28:55.444Z,49.50
2023-01-10T04:31:23.277Z,49.80
2023-01-10T04:33:50.048Z,50.10
2023-01-10T04:36:16.839Z,49.50
2023-01-10T04:38:43.556Z,49.60
2023-01-10T04:41:10.432Z,50.30
2023-01-10T04:43:37.224Z,49.70
2023-01-10T04:46:04.236Z,49.90
2023-01-10T04:48:30.982Z,49.50
2023-01-10T04:50:57.842Z,50.20
2023-01-10T04:53:24.590Z,50.00
2023-01-10T04:55:51.410Z,49.50
2023-01-10T04:58:18.188Z,50.00
2023-01-10T05:00:44.858Z,49.40
2023-01-10T05:03:11.644Z,50.30
2023-01-10T05:05:38.374Z,49.50
2023-01-10T05:08:05.510Z,49.50
2023-01-10T05:10:32.284Z,49.50
2023-01-10T05:12:59.023Z,49.20
2023-01-10T05:15:25.863Z,50.00
2023-01-10T05:17:59.102Z,49.40
2023-01-10T05:20:27.195Z,49.80
2023-01-10T05:22:53.985Z,49.90
2023-01-10T05:25:20.722Z,50.00
2023-01-10T05:27:47.444Z,49.50
2023-01-10T05:30:14.557Z,49.50
2023-01-10T05:32:41.428Z,49.50
2023-01-10T05:35:08.591Z,49.30
2023-01-10T05:37:37.338Z,49.50
2023-01-10T05:40:05.455Z,50.00
2023-01-10T05:42:32.112Z,49.40
2023-01-10T05:44:58.794Z,49.10
2023-01-10T05:47:25.586Z,50.10
2023-01-10T05:49:52.536Z,50.60
2023-01-10T05:52:19.224Z,50.00
2023-01-10T05:54:46.057Z,49.90
2023-01-10T05:57:12.988Z,49.20
2023-01-10T05:59:39.879Z,49.40
2023-01-10T06:02:06.670Z,49.50
2023-01-10T06:04:33.459Z,50.20
2023-01-10T06:07:00.159Z,50.60
2023-01-10T06:09:26.913Z,49.10
2023-01-10T06:11:53.533Z,50.40
2023-01-10T06:14:20.392Z,50.30
2023-01-10T06:16:47.709Z,50.40
2023-01-10T06:19:14.500Z,50.30
2023-01-10T06:21:41.480Z,49.90
2023-01-10T06:24:08.561Z,49.50
2023-01-10T06:26:35.297Z,49.40
2023-01-10T06:29:03.129Z,49.50
2023-01-10T06:31:30.035Z,48.90
2023-01-10T06:33:56.928Z,49.90
2023-01-10T06:36:23.744Z,49.30
2023-01-10T06:38:50.491Z,50.50
2023-01-10T06:41:17.358Z,50.20
2023-01-10T06:43:46.071Z,49.80
2023-01-10T06:46:16.429Z,50.90
2023-01-10T06:48:45.487Z,49.50
2023-01-10T06:51:14.192Z,49.20
2023-01-10T06:53:41.812Z,49.80
2023-01-10T06:56:09.785Z,49.40
2023-01-10T06:58:40.960Z,49.40
2023-01-10T07:01:14.130Z,49.50
2023-01-10T07:03:41.429Z,49.50
2023-01-10T07:06:12.032Z,50.20
2023-01-10T07:08:45.012Z,50.00
2023-01-10T07:11:14.175Z,50.20
2023-01-10T07:13:41.504Z,49.40
2023-01-10T07:16:12.893Z,50.30
2023-01-10T07:18:41.847Z,49.70
2023-01-10T07:21:09.947Z,49.60
2023-01-10T07:23:38.010Z,50.10
2023-01-10T07:26:08.212Z,50.00
2023-01-10T07:28:36.161Z,50.60
2023-01-10T07:31:05.403Z,50.50
2023-01-10T07:33:32.448Z,50.50
2023-01-10T07:36:01.095Z,50.70
2023-01-10T07:38:28.208Z,51.40
2023-01-10T07:40:55.044Z,51.10
2023-01-10T07:43:22.150Z,51.70
2023-01-10T07:45:48.905Z,51.10
2023-01-10T07:48:15.611Z,50.80
2023-01-10T07:50:42.389Z,50.70
2023-01-10T07:53:10.191Z,50.50
2023-01-10T07:55:39.636Z,51.10
2023-01-10T07:58:10.598Z,50.40
2023-01-10T08:00:37.371Z,51.50
2023-01-10T08:03:04.491Z,51.50
2023-01-10T08:05:31.320Z,50.80
2023-01-10T08:08:03.595Z,50.40
2023-01-10T08:10:30.346Z,51.30
2023-01-10T08:13:01.513Z,50.70
2023-01-10T08:15:31.292Z,50.60
2023-01-10T08:18:04.170Z,50.70
2023-01-10T08:20:31.639Z,50.00
2023-01-10T08:22:58.932Z,50.20
2023-01-10T08:25:26.345Z,50.00
2023-01-10T08:27:53.179Z,50.10
2023-01-10T08:30:19.981Z,50.70
2023-01-10T08:32:46.775Z,50.90
2023-01-10T08:35:13.513Z,50.50
2023-01-10T08:37:40.218Z,49.90
2023-01-10T08:40:07.840Z,49.80
2023-01-10T08:42:35.063Z,49.80
2023-01-10T08:45:03.240Z,49.90
2023-01-10T08:47:30.352Z,49.80
2023-01-10T08:49:57.097Z,50.80
2023-01-10T08:52:24.867Z,49.70
2023-01-10T08:54:51.589Z,50.10
2023-01-10T08:57:18.381Z,50.20
2023-01-10T08:59:45.117Z,49.80
2023-01-10T09:02:15.093Z,49.80
2023-01-10T09:04:42.856Z,49.70
2023-01-10T09:07:09.631Z,50.10
2023-01-10T09:09:36.952Z,49.60
2023-01-10T09:12:23.792Z,51.00
2023-01-10T09:14:51.033Z,49.50
2023-01-10T09:17:18.815Z,50.50
2023-01-10T09:19:45.856Z,50.30
2023-01-10T09:22:12.612Z,49.40
2023-01-10T09:24:39.403Z,49.50
2023-01-10T09:27:06.136Z,50.40
2023-01-10T09:29:32.928Z,49.50
2023-01-10T09:31:59.705Z,50.40
2023-01-10T09:34:26.634Z,49.70
2023-01-10T09:36:54.192Z,49.50
2023-01-10T09:39:21.481Z,49.80
2023-01-10T09:42:07.128Z,50.00
2023-01-10T09:45:02.878Z,49.40
2023-01-10T09:47:47.184Z,49.30
2023-01-10T09:50:25.697Z,49.30
2023-01-10T09:53:21.383Z,49.30
2023-01-10T09:55:57.224Z,49.30
2023-01-10T09:58:27.646Z,49.60
2023-01-10T10:00:58.388Z,49.60
2023-01-10T10:03:41.534Z,49.50
2023-01-10T10:06:12.764Z,49.30
2023-01-10T10:08:44.059Z,49.80
2023-01-10T10:11:26.253Z,49.20
2023-01-10T10:14:07.110Z,49.00
2023-01-10T10:16:52.461Z,49.20
2023-01-10T10:19:48.406Z,49.10
2023-01-10T10:22:41.691Z,49.20
2023-01-10T10:25:20.447Z,49.10
2023-01-10T10:28:34.488Z,49.10
2023-01-10T10:31:02.364Z,49.00
2023-01-10T10:33:46.871Z,49.10
2023-01-10T10:36:22.004Z,49.10
2023-01-10T10:38:50.224Z,49.60
2023-01-10T10:41:35.302Z,49.30
2023-01-10T10:44:16.373Z,49.10
2023-01-10T10:46:43.299Z,48.70
2023-01-10T10:49:25.987Z,49.90
2023-01-10T10:51:53.761Z,49.10
2023-01-10T10:54:20.680Z,49.00
2023-01-10T10:56:47.599Z,49.40
2023-01-10T10:59:19.469Z,49.50
2023-01-10T11:01:48.831Z,49.10
2023-01-10T11:04:19.547Z,49.60
2023-01-10T11:06:50.280Z,49.10
2023-01-10T11:09:27.363Z,49.50
2023-01-10T11:11:56.748Z,49.50
2023-01-10T11:14:46.240Z,49.70
2023-01-10T11:17:25.836Z,48.90
2023-01-10T11:20:01.771Z,49.30
2023-01-10T11:22:39.555Z,49.20
2023-01-10T11:25:16.513Z,49.40
2023-01-10T11:27:49.879Z,49.20
2023-01-10T11:30:25.879Z,49.70
2023-01-10T11:32:56.959Z,49.80
2023-01-10T11:35:36.945Z,49.70
2023-01-10T11:38:19.910Z,49.20
2023-01-10T11:41:06.269Z,49.30
2023-01-10T11:43:37.976Z,49.20
2023-01-10T11:46:16.069Z,49.30
2023-01-10T11:49:04.345Z,49.30
2023-01-10T11:51:52.388Z,49.50
2023-01-10T11:54:22.116Z,49.30
2023-01-10T11:57:02.602Z,49.30
2023-01-10T11:59:30.923Z,49.40
2023-01-10T12:02:16.472Z,49.50
2023-01-10T12:04:46.907Z,49.30
2023-01-10T12:07:13.763Z,49.30
2023-01-10T12:09:53.794Z,49.70
2023-01-10T12:12:32.368Z,49.30
2023-01-10T12:15:20.602Z,49.40
2023-01-10T12:17:47.611Z,49.80
2023-01-10T12:20:15.665Z,49.50
2023-01-10T12:22:48.970Z,49.40
2023-01-10T12:25:22.987Z,49.40
2023-01-10T12:27:52.508Z,49.40
2023-01-10T12:30:25.175Z,49.50
2023-01-10T12:32:55.432Z,49.50
2023-01-10T12:35:31.706Z,49.20
2023-01-10T12:38:41.231Z,49.60
2023-01-10T12:41:09.150Z,49.50
2023-01-10T12:44:09.832Z,49.60
2023-01-10T12:47:05.646Z,50.20
2023-01-10T12:50:09.161Z,49.80
2023-01-10T12:52:52.681Z,50.70
2023-01-10T12:55:21.844Z,50.60
2023-01-10T12:57:53.876Z,50.30
2023-01-10T13:00:47.193Z,50.80
2023-01-10T13:03:19.813Z,50.70
2023-01-10T13:05:49.600Z,51.00
2023-01-10T13:08:20.864Z,51.50
2023-01-10T13:10:51.227Z,51.00
2023-01-10T13:13:35.852Z,51.50
2023-01-10T13:16:21.173Z,51.30
2023-01-10T13:19:11.272Z,51.40
2023-01-10T13:21:39.922Z,51.40
2023-01-10T13:24:20.364Z,51.50
2023-01-10T13:26:59.576Z,51.50
2023-01-10T13:29:38.959Z,51.60
2023-01-10T13:32:23.571Z,51.50
2023-01-10T13:34:51.367Z,51.40
2023-01-10T13:37:39.437Z,51.70
2023-01-10T13:40:07.043Z,51.40
2023-01-10T13:42:54.095Z,51.70
2023-01-10T13:45:25.619Z,51.30
2023-01-10T13:47:54.425Z,51.70
2023-01-10T13:50:24.247Z,51.30
2023-01-10T13:53:00.731Z,51.20
2023-01-10T13:55:34.343Z,51.20
2023-01-10T13:58:13.369Z,51.20
2023-01-10T14:00:58.968Z,51.00
2023-01-10T14:03:35.720Z,51.10
2023-01-10T14:06:03.764Z,51.10
2023-01-10T14:08:31.688Z,51.50
2023-01-10T14:11:11.010Z,51.50
2023-01-10T14:13:38.264Z,50.90
2023-01-10T14:16:07.072Z,51.70
2023-01-10T14:18:39.197Z,51.00
2023-01-10T14:21:09.658Z,50.90
2023-01-10T14:23:49.529Z,50.90
2023-01-10T14:26:23.028Z,51.00
2023-01-10T14:28:50.534Z,50.90
2023-01-10T14:31:23.797Z,51.80
2023-01-10T14:33:51.235Z,51.50
2023-01-10T14:36:55.515Z,51.00
2023-01-10T14:39:23.771Z,51.00
2023-01-10T14:41:54.238Z,51.70
2023-01-10T14:44:40.357Z,51.00
2023-01-10T14:47:27.891Z,51.00
2023-01-10T14:50:07.141Z,51.20
2023-01-10T14:52:34.387Z,51.60
2023-01-10T14:55:14.048Z,51.20
2023-01-10T14:57:40.855Z,51.10
2023-01-10T15:00:09.619Z,51.30
2023-01-10T15:02:39.436Z,51.10
2023-01-10T15:05:17.919Z,51.50
2023-01-10T15:07:44.657Z,51.40
2023-01-10T15:10:32.469Z,51.40
2023-01-10T15:13:02.747Z,51.20
2023-01-10T15:15:34.735Z,51.70
2023-01-10T15:18:05.121Z,51.30
2023-01-10T15:20:32.164Z,51.10
2023-01-10T15:23:01.323Z,51.10
2023-01-10T15:25:30.283Z,51.50
2023-01-10T15:27:58.780Z,51.30
2023-01-10T15:30:31.357Z,51.40
2023-01-10T15:33:03.791Z,51.80
2023-01-10T15:35:36.463Z,51.30
2023-01-10T15:38:12.010Z,51.20
2023-01-10T15:40:40.388Z,51.20
2023-01-10T15:43:24.380Z,51.40
2023-01-10T15:45:53.085Z,51.30
2023-01-10T15:48:42.628Z,51.60
2023-01-10T15:51:14.698Z,51.30
2023-01-10T15:53:55.312Z,51.60
2023-01-10T15:56:47.643Z,51.30
2023-01-10T15:59:34.187Z,51.40
2023-01-10T16:02:25.606Z,51.40
2023-01-10T16:05:06.004Z,51.30
2023-01-10T16:07:42.241Z,51.30
2023-01-10T16:10:23.817Z,51.80
2023-01-10T16:13:09.187Z,51.40
2023-01-10T16:15:39.768Z,52.60
2023-01-10T16:18:06.587Z,51.70
2023-01-10T16:20:49.246Z,51.40
2023-01-10T16:23:34.389Z,51.00
2023-01-10T16:26:05.618Z,51.20
2023-01-10T16:28:36.159Z,51.50
2023-01-10T16:31:06.373Z,51.50
2023-01-10T16:33:34.268Z,51.90
2023-01-10T16:36:01.213Z,52.60
2023-01-10T16:38:29.188Z,51.40
2023-01-10T16:41:23.827Z,51.50
2023-01-10T16:43:51.740Z,51.00
2023-01-10T16:46:18.722Z,51.20
2023-01-10T16:48:47.640Z,51.80
2023-01-10T16:51:19.211Z,51.50
2023-01-10T16:53:47.189Z,51.50
2023-01-10T16:56:17.003Z,51.40
2023-01-10T16:58:43.803Z,51.50
2023-01-10T17:01:19.785Z,51.60
2023-01-10T17:03:47.059Z,51.90
2023-01-10T17:06:15.489Z,52.10
2023-01-10T17:08:43.383Z,51.70
2023-01-10T17:11:28.976Z,51.80
2023-01-10T17:13:56.206Z,51.80
2023-01-10T17:16:23.292Z,52.20
2023-01-10T17:18:50.081Z,53.20
2023-01-10T17:21:19.300Z,53.20
2023-01-10T17:23:47.021Z,52.50
2023-01-10T17:26:16.146Z,52.50
2023-01-10T17:28:45.856Z,52.10
2023-01-10T17:31:13.640Z,52.70
2023-01-10T17:33:40.462Z,53.10
2023-01-10T17:36:07.627Z,53.00
2023-01-10T17:38:34.329Z,52.20
2023-01-10T17:41:03.915Z,52.20
2023-01-10T17:43:31.673Z,52.10
2023-01-10T17:45:59.085Z,52.80
2023-01-10T17:48:26.241Z,53.80
2023-01-10T17:50:58.917Z,52.40
2023-01-10T17:53:26.029Z,52.50
2023-01-10T17:55:53.618Z,52.80
2023-01-10T17:58:21.237Z,52.40
2023-01-10T18:00:49.088Z,53.20
2023-01-10T18:03:16.646Z,53.60
2023-01-10T18:05:54.578Z,53.30
2023-01-10T18:08:22.197Z,52.40
2023-01-10T18:10:49.595Z,52.90
2023-01-10T18:13:18.093Z,52.40
2023-01-10T18:15:47.953Z,52.50
2023-01-10T18:18:15.162Z,54.20
2023-01-10T18:20:43.305Z,53.20
2023-01-10T18:23:21.042Z,53.00
2023-01-10T18:26:04.248Z,53.20
2023-01-10T18:28:42.035Z,52.50
2023-01-10T18:31:17.928Z,52.50
2023-01-10T18:33:46.153Z,52.20
2023-01-10T18:36:15.419Z,53.10
2023-01-10T18:38:42.363Z,52.70
2023-01-10T18:41:09.440Z,53.00
2023-01-10T18:43:36.262Z,54.50
2023-01-10T18:46:06.589Z,54.00
2023-01-10T18:48:33.525Z,52.60
2023-01-10T18:51:01.416Z,53.50
2023-01-10T18:53:28.672Z,53.00
2023-01-10T18:55:57.429Z,53.70
2023-01-10T18:58:26.019Z,53.20
2023-01-10T19:00:53.100Z,53.60
2023-01-10T19:03:20.272Z,52.80
2023-01-10T19:05:47.073Z,53.20
2023-01-10T19:08:14.002Z,52.60
2023-01-10T19:11:07.495Z,53.30
2023-01-10T19:13:32.090Z,52.80
2023-01-10T19:16:13.481Z,53.30
2023-01-10T19:18:40.820Z,53.20
2023-01-10T19:21:14.730Z,52.60
2023-01-10T19:23:43.019Z,53.40
2023-01-10T19:26:09.828Z,53.00
2023-01-10T19:28:36.736Z,53.30
2023-01-10T19:31:05.208Z,53.60
2023-01-10T19:33:34.520Z,52.90
2023-01-10T19:36:06.332Z,52.50
2023-01-10T19:38:33.329Z,53.00
2023-01-10T19:41:00.341Z,53.70
2023-01-10T19:43:27.150Z,53.70
2023-01-10T19:45:54.325Z,53.40
2023-01-10T19:48:22.709Z,54.00
2023-01-10T19:50:49.812Z,53.40
2023-01-10T19:53:16.716Z,53.90
2023-01-10T19:55:43.510Z,53.70
2023-01-10T19:58:10.704Z,53.70
2023-01-10T20:00:37.538Z,54.20
2023-01-10T20:03:05.121Z,53.90
2023-01-10T20:05:34.876Z,53.60
2023-01-10T20:08:02.006Z,53.80
2023-01-10T20:10:28.810Z,53.70
2023-01-10T20:12:55.482Z,53.60
2023-01-10T20:15:22.268Z,53.50
2023-01-10T20:17:49.010Z,53.10
2023-01-10T20:20:16.678Z,54.40
2023-01-10T20:22:43.489Z,53.60
2023-01-10T20:25:10.386Z,54.00
2023-01-10T20:27:37.188Z,53.60
2023-01-10T20:30:04.924Z,54.50
2023-01-10T20:32:31.779Z,53.60
2023-01-10T20:34:58.573Z,54.60
2023-01-10T20:37:25.323Z,54.40
2023-01-10T20:39:52.235Z,54.00
2023-01-10T20:42:18.931Z,53.80
2023-01-10T20:44:46.127Z,54.00
2023-01-10T20:47:12.827Z,54.80
2023-01-10T20:49:39.492Z,55.20
2023-01-10T20:52:06.260Z,54.40
2023-01-10T20:54:34.681Z,54.60
2023-01-10T20:57:01.558Z,53.80
2023-01-10T20:59:29.260Z,54.20
2023-01-10T21:01:56.068Z,53.90
2023-01-10T21:04:22.913Z,53.90
2023-01-10T21:06:49.737Z,54.10
2023-01-10T21:09:16.570Z,54.20
2023-01-10T21:11:58.043Z,54.00
2023-01-10T21:14:28.633Z,54.70
2023-01-10T21:16:55.492Z,54.40
2023-01-10T21:19:22.287Z,54.30
2023-01-10T21:21:49.139Z,54.60
2023-01-10T21:24:15.978Z,54.80
2023-01-10T21:26:42.841Z,55.00
2023-01-10T21:29:11.559Z,54.70
2023-01-10T21:31:39.608Z,54.50
2023-01-10T21:34:06.409Z,54.20
2023-01-10T21:36:33.157Z,54.70
2023-01-10T21:38:59.941Z,55.00
2023-01-10T21:41:45.536Z,54.50
2023-01-10T21:44:12.436Z,54.70
2023-01-10T21:46:40.851Z,54.70
2023-01-10T21:49:07.672Z,55.40
2023-01-10T21:51:34.392Z,54.60
2023-01-10T21:54:01.126Z,55.00
2023-01-10T21:56:27.864Z,54.80
2023-01-10T21:58:54.607Z,54.20
2023-01-10T22:01:21.415Z,54.10
2023-01-10T22:03:49.450Z,54.50
2023-01-10T22:06:16.330Z,54.90
2023-01-10T22:08:43.090Z,54.60
2023-01-10T22:11:11.018Z,55.20
2023-01-10T22:13:38.661Z,54.90
2023-01-10T22:16:07.104Z,55.10
2023-01-10T22:18:33.983Z,54.70
2023-01-10T22:21:00.697Z,54.70
2023-01-10T22:23:28.842Z,55.40
2023-01-10T22:26:04.383Z,54.70
2023-01-10T22:28:31.601Z,54.80
2023-01-10T22:30:58.656Z,54.90
2023-01-10T22:33:29.620Z,55.30
2023-01-10T22:35:56.555Z,54.90
2023-01-10T22:38:23.412Z,55.50
2023-01-10T22:40:50.135Z,55.10
2023-01-10T22:43:16.916Z,55.50
2023-01-10T22:45:43.768Z,55.20
2023-01-10T22:48:10.644Z,55.40
2023-01-10T22:50:37.813Z,55.40
2023-01-10T22:53:04.530Z,55.50
2023-01-10T22:55:33.662Z,55.70
2023-01-10T22:58:00.447Z,56.00
2023-01-10T23:00:28.876Z,56.20
2023-01-10T23:02:55.624Z,55.30
2023-01-10T23:05:22.439Z,55.90
2023-01-10T23:07:53.329Z,56.00
2023-01-10T23:10:29.633Z,56.00
2023-01-10T23:12:57.808Z,55.40
2023-01-10T23:15:24.729Z,55.90
2023-01-10T23:17:51.560Z,55.40
2023-01-10T23:20:18.341Z,55.50
2023-01-10T23:22:45.169Z,55.60
2023-01-10T23:25:12.161Z,55.90
2023-01-10T23:27:40.664Z,55.60
2023-01-10T23:30:11.090Z,55.80
2023-01-10T23:32:37.856Z,55.70
2023-01-10T23:35:04.841Z,56.60
2023-01-10T23:37:31.598Z,55.80
2023-01-10T23:39:58.329Z,56.00
2023-01-10T23:42:25.056Z,55.80
2023-01-10T23:44:51.788Z,55.80
2023-01-10T23:47:19.635Z,56.20
2023-01-10T23:49:46.327Z,55.90
2023-01-10T23:52:14.790Z,56.10
2023-01-10T23:54:41.694Z,56.00
2023-01-10T23:57:08.404Z,55.80
2023-01-10T23:59:35.176Z,56.20
